createdAt,value
2022-12-27T00:02:10.159Z,6.90
2022-12-27T00:04:56.186Z,6.90
2022-12-27T00:07:42.204Z,7.00
2022-12-27T00:10:28.650Z,7.00
2022-12-27T00:13:14.372Z,7.10
2022-12-27T00:16:02.495Z,6.70
2022-12-27T00:18:49.667Z,7.10
2022-12-27T00:21:36.675Z,7.20
2022-12-27T00:24:22.962Z,7.00
2022-12-27T00:27:08.814Z,7.00
2022-12-27T00:29:54.313Z,6.70
2022-12-27T00:32:39.562Z,6.80
2022-12-27T00:35:26.931Z,6.70
2022-12-27T00:38:12.251Z,6.80
2022-12-27T00:40:57.514Z,7.00
2022-12-27T00:43:43.533Z,6.90
2022-12-27T00:46:29.266Z,7.00
2022-12-27T00:49:14.641Z,7.00
2022-12-27T00:52:01.598Z,7.00
2022-12-27T00:54:47.315Z,7.20
2022-12-27T00:57:32.874Z,7.20
2022-12-27T01:00:18.491Z,7.20
2022-12-27T01:03:04.054Z,7.10
2022-12-27T01:05:51.587Z,7.00
2022-12-27T01:08:38.622Z,6.70
2022-12-27T01:11:24.427Z,6.80
2022-12-27T01:14:09.988Z,7.00
2022-12-27T01:16:55.320Z,6.90
2022-12-27T01:19:40.846Z,7.10
2022-12-27T01:22:26.385Z,6.80
2022-12-27T01:25:13.277Z,6.90
2022-12-27T01:27:58.851Z,6.70
2022-12-27T01:30:44.717Z,6.80
2022-12-27T01:33:30.701Z,6.80
2022-12-27T01:36:20.741Z,6.90
2022-12-27T01:39:08.435Z,6.80
2022-12-27T01:42:14.333Z,6.90
2022-12-27T01:47:49.666Z,7.10
2022-12-27T01:50:36.929Z,7.30
2022-12-27T01:53:23.195Z,7.20
2022-12-27T01:56:11.726Z,7.30
2022-12-27T02:00:04.690Z,7.30
2022-12-27T02:02:51.058Z,7.40
2022-12-27T02:05:41.789Z,7.90
2022-12-27T02:08:38.909Z,8.10
2022-12-27T02:11:48.218Z,8.40
2022-12-27T02:14:35.917Z,8.50
2022-12-27T02:17:26.483Z,8.30
2022-12-27T02:20:16.585Z,7.90
2022-12-27T02:23:48.308Z,7.60
2022-12-27T02:26:45.247Z,7.70
2022-12-27T02:29:52.505Z,7.70
2022-12-27T02:32:44.659Z,7.60
2022-12-27T02:35:35.900Z,7.50
2022-12-27T02:38:23.616Z,7.50
2022-12-27T02:41:29.665Z,7.50
2022-12-27T02:44:53.902Z,7.30
2022-12-27T02:48:00.637Z,7.10
2022-12-27T02:51:25.939Z,7.20
2022-12-27T02:54:26.070Z,7.40
2022-12-27T02:57:23.097Z,7.50
2022-12-27T03:00:31.741Z,7.30
2022-12-27T03:03:42.623Z,7.20
2022-12-27T03:06:44.858Z,7.10
2022-12-27T03:10:07.866Z,7.30
2022-12-27T03:13:23.317Z,7.10
2022-12-27T03:16:12.427Z,7.20
2022-12-27T03:19:08.815Z,6.90
2022-12-27T03:22:12.623Z,6.90
2022-12-27T03:25:17.407Z,7.10
2022-12-27T03:28:25.942Z,7.10
2022-12-27T03:31:31.445Z,7.20
2022-12-27T03:34:32.147Z,7.10
2022-12-27T03:37:41.709Z,7.10
2022-12-27T03:40:31.282Z,7.00
2022-12-27T03:43:18.283Z,7.20
2022-12-27T03:46:27.109Z,7.30
2022-12-27T03:49:19.830Z,7.50
2022-12-27T03:52:08.718Z,7.40
2022-12-27T03:54:54.850Z,7.40
2022-12-27T03:57:42.015Z,7.20
2022-12-27T04:00:28.285Z,7.10
2022-12-27T04:03:13.917Z,7.40
2022-12-27T04:05:59.520Z,7.40
2022-12-27T04:09:04.948Z,7.40
2022-12-27T04:12:09.161Z,7.50
2022-12-27T04:15:13.458Z,7.30
2022-12-27T04:18:17.814Z,7.30
2022-12-27T04:21:22.288Z,7.20
2022-12-27T04:24:28.101Z,7.20
2022-12-27T04:27:32.389Z,7.30
2022-12-27T04:30:36.838Z,7.20
2022-12-27T04:33:40.847Z,7.30
2022-12-27T04:36:26.184Z,7.20
2022-12-27T04:39:13.367Z,7.00
2022-12-27T04:42:17.606Z,7.00
2022-12-27T04:45:21.958Z,7.00
2022-12-27T04:48:29.700Z,7.00
2022-12-27T04:51:34.073Z,7.00
2022-12-27T04:54:39.735Z,6.90
2022-12-27T04:57:25.814Z,6.80
2022-12-27T05:00:30.790Z,6.90
2022-12-27T05:03:17.357Z,6.80
2022-12-27T05:06:03.117Z,6.90
2022-12-27T05:09:07.492Z,7.00
2022-12-27T05:12:20.606Z,6.80
2022-12-27T05:15:06.369Z,6.90
2022-12-27T05:17:51.927Z,7.10
2022-12-27T05:20:37.678Z,7.20
2022-12-27T05:23:42.031Z,6.90
2022-12-27T05:26:28.486Z,6.90
2022-12-27T05:29:15.960Z,7.00
2022-12-27T05:32:01.768Z,6.90
2022-12-27T05:34:47.329Z,7.00
2022-12-27T05:37:36.651Z,6.70
2022-12-27T05:40:22.949Z,7.00
2022-12-27T05:43:08.424Z,7.00
2022-12-27T05:45:55.758Z,7.20
2022-12-27T05:48:41.689Z,7.20
2022-12-27T05:51:27.252Z,7.00
2022-12-27T05:54:12.679Z,7.20
2022-12-27T05:56:58.000Z,7.20
2022-12-27T05:59:43.317Z,7.20
2022-12-27T06:02:30.146Z,7.00
2022-12-27T06:05:16.479Z,7.00
2022-12-27T06:08:02.225Z,7.00
2022-12-27T06:10:47.485Z,7.10
2022-12-27T06:13:33.474Z,7.20
2022-12-27T06:16:20.419Z,7.10
2022-12-27T06:19:07.139Z,7.10
2022-12-27T06:21:52.618Z,7.00
2022-12-27T06:24:39.417Z,6.70
2022-12-27T06:27:24.998Z,6.80
2022-12-27T06:30:12.201Z,6.90
2022-12-27T06:32:57.779Z,6.70
2022-12-27T06:35:44.494Z,6.70
2022-12-27T06:38:29.892Z,6.90
2022-12-27T06:41:17.364Z,7.00
2022-12-27T06:44:03.031Z,7.10
2022-12-27T06:46:48.457Z,7.00
2022-12-27T06:49:34.131Z,7.20
2022-12-27T06:52:23.107Z,6.90
2022-12-27T06:55:09.080Z,7.00
2022-12-27T06:57:54.595Z,6.90
2022-12-27T07:00:40.764Z,6.90
2022-12-27T07:03:26.639Z,6.90
2022-12-27T07:06:12.945Z,6.90
2022-12-27T07:09:00.686Z,7.00
2022-12-27T07:11:46.668Z,6.50
2022-12-27T07:14:32.040Z,6.50
2022-12-27T07:17:17.722Z,6.80
2022-12-27T07:20:03.314Z,6.80
2022-12-27T07:22:49.005Z,6.90
2022-12-27T07:25:36.048Z,6.90
2022-12-27T07:28:21.591Z,6.80
2022-12-27T07:31:08.233Z,7.10
2022-12-27T07:33:53.874Z,7.20
2022-12-27T07:36:40.073Z,7.20
2022-12-27T07:39:25.635Z,7.10
2022-12-27T07:42:12.543Z,7.00
2022-12-27T07:44:58.373Z,7.10
2022-12-27T07:47:43.746Z,7.10
2022-12-27T07:50:29.287Z,7.10
2022-12-27T07:53:14.646Z,7.20
2022-12-27T07:56:04.876Z,7.20
2022-12-27T07:58:52.191Z,7.00
2022-12-27T08:01:56.318Z,6.90
2022-12-27T08:04:42.230Z,7.10
2022-12-27T08:07:27.913Z,7.30
2022-12-27T08:10:13.464Z,7.30
2022-12-27T08:12:59.008Z,7.40
2022-12-27T08:15:46.042Z,7.40
2022-12-27T08:18:31.507Z,7.40
2022-12-27T08:21:16.933Z,7.40
2022-12-27T08:24:02.175Z,7.10
2022-12-27T08:26:47.797Z,7.20
2022-12-27T08:29:33.532Z,7.10
2022-12-27T08:32:20.685Z,7.30
2022-12-27T08:35:41.975Z,7.60
2022-12-27T08:38:11.938Z,7.60
2022-12-27T08:40:57.375Z,7.50
2022-12-27T08:43:43.411Z,7.50
2022-12-27T08:46:29.241Z,7.80
2022-12-27T08:49:15.875Z,7.70
2022-12-27T08:52:01.419Z,7.70
2022-12-27T08:54:47.096Z,7.80
2022-12-27T08:57:32.322Z,8.00
2022-12-27T09:00:18.107Z,8.10
2022-12-27T09:03:03.727Z,8.00
2022-12-27T09:05:50.826Z,8.20
2022-12-27T09:08:36.601Z,8.20
2022-12-27T09:11:23.068Z,7.90
2022-12-27T09:14:09.349Z,7.70
2022-12-27T09:16:54.816Z,7.80
2022-12-27T09:19:40.433Z,7.80
2022-12-27T09:22:27.900Z,8.00
2022-12-27T09:25:13.524Z,8.10
2022-12-27T09:27:59.199Z,8.30
2022-12-27T09:30:44.633Z,8.50
2022-12-27T09:33:30.997Z,8.50
2022-12-27T09:36:17.429Z,8.70
2022-12-27T09:39:04.340Z,8.80
2022-12-27T09:45:00.623Z,9.10
2022-12-27T09:47:49.765Z,9.60
2022-12-27T09:50:37.885Z,10.00
2022-12-27T09:53:25.355Z,9.70
2022-12-27T09:56:14.292Z,9.50
2022-12-27T09:59:05.504Z,9.50
2022-12-27T10:01:51.790Z,9.70
2022-12-27T10:05:09.802Z,10.00
2022-12-27T10:07:49.305Z,10.30
2022-12-27T10:10:42.538Z,10.10
2022-12-27T10:13:34.980Z,9.80
2022-12-27T10:16:27.886Z,9.90
2022-12-27T10:19:21.147Z,10.20
2022-12-27T10:22:15.363Z,9.80
2022-12-27T10:25:02.918Z,9.70
2022-12-27T10:27:50.841Z,9.50
2022-12-27T10:30:39.749Z,9.50
2022-12-27T10:33:26.734Z,9.60
2022-12-27T10:36:14.227Z,9.90
2022-12-27T10:39:03.047Z,10.10
2022-12-27T10:41:56.031Z,10.40
2022-12-27T10:44:41.847Z,10.40
2022-12-27T10:47:29.011Z,10.70
2022-12-27T10:50:15.146Z,10.90
2022-12-27T10:53:00.849Z,11.10
2022-12-27T10:55:46.296Z,11.30
2022-12-27T10:58:37.365Z,11.30
2022-12-27T11:01:23.742Z,11.10
2022-12-27T11:04:19.405Z,10.90
2022-12-27T11:07:18.213Z,11.00
2022-12-27T11:10:08.514Z,11.20
2022-12-27T11:12:58.348Z,11.60
2022-12-27T11:15:44.653Z,11.90
2022-12-27T11:18:30.727Z,12.20
2022-12-27T11:21:27.275Z,12.50
2022-12-27T11:24:15.529Z,12.60
2022-12-27T11:27:01.506Z,12.70
2022-12-27T11:29:47.033Z,12.80
2022-12-27T11:32:33.412Z,13.00
2022-12-27T11:35:21.159Z,13.20
2022-12-27T11:38:16.294Z,13.50
2022-12-27T11:41:03.381Z,13.80
2022-12-27T11:43:51.044Z,13.70
2022-12-27T11:46:39.263Z,13.40
2022-12-27T11:49:27.764Z,13.30
2022-12-27T11:52:19.796Z,13.50
2022-12-27T11:55:32.752Z,13.80
2022-12-27T11:58:35.700Z,14.40
2022-12-27T12:01:51.444Z,14.60
2022-12-27T12:04:45.412Z,14.40
2022-12-27T12:07:41.132Z,14.50
2022-12-27T12:10:32.638Z,14.60
2022-12-27T12:13:49.063Z,14.70
2022-12-27T12:16:45.007Z,14.20
2022-12-27T12:19:36.327Z,14.40
2022-12-27T12:22:30.011Z,14.30
2022-12-27T12:25:29.994Z,14.00
2022-12-27T12:28:56.812Z,14.20
2022-12-27T12:31:44.665Z,14.10
2022-12-27T12:34:38.203Z,13.80
2022-12-27T12:37:36.288Z,14.00
2022-12-27T12:40:32.696Z,13.30
2022-12-27T12:43:23.877Z,13.30
2022-12-27T12:46:17.417Z,13.10
2022-12-27T12:49:10.146Z,12.70
2022-12-27T12:52:06.163Z,12.40
2022-12-27T12:54:57.365Z,12.50
2022-12-27T12:57:48.850Z,12.30
2022-12-27T13:00:42.656Z,12.20
2022-12-27T13:03:43.408Z,11.90
2022-12-27T13:06:44.358Z,12.00
2022-12-27T13:09:37.046Z,11.80
2022-12-27T13:12:25.921Z,11.70
2022-12-27T13:15:21.083Z,12.10
2022-12-27T13:18:13.763Z,12.70
2022-12-27T13:21:03.720Z,13.60
2022-12-27T13:23:59.622Z,14.20
2022-12-27T13:26:49.845Z,14.20
2022-12-27T13:29:43.038Z,14.20
2022-12-27T13:32:34.972Z,14.20
2022-12-27T13:35:28.303Z,13.70
2022-12-27T13:38:23.797Z,13.50
2022-12-27T13:41:30.106Z,13.30
2022-12-27T13:44:27.311Z,13.20
2022-12-27T13:47:27.158Z,13.30
2022-12-27T13:50:30.551Z,13.00
2022-12-27T13:53:33.440Z,12.50
2022-12-27T13:59:44.759Z,12.00
2022-12-27T14:02:49.204Z,11.80
2022-12-27T14:05:55.924Z,11.70
2022-12-27T14:08:54.320Z,11.30
2022-12-27T14:11:46.952Z,11.20
2022-12-27T14:14:33.033Z,11.50
2022-12-27T14:17:24.704Z,11.60
2022-12-27T14:20:19.264Z,11.30
2022-12-27T14:23:13.525Z,11.20
2022-12-27T14:26:18.315Z,11.40
2022-12-27T14:29:22.852Z,11.60
2022-12-27T14:32:28.553Z,11.60
2022-12-27T14:35:29.647Z,11.40
2022-12-27T14:38:34.798Z,11.20
2022-12-27T14:41:39.092Z,10.80
2022-12-27T14:44:39.164Z,10.90
2022-12-27T14:47:43.394Z,11.00
2022-12-27T14:50:43.692Z,11.30
2022-12-27T14:53:41.968Z,11.50
2022-12-27T14:56:32.857Z,11.30
2022-12-27T14:59:22.562Z,11.30
2022-12-27T15:02:19.573Z,11.30
2022-12-27T15:05:11.967Z,11.40
2022-12-27T15:08:06.363Z,11.30
2022-12-27T15:10:59.486Z,11.10
2022-12-27T15:13:52.762Z,11.20
2022-12-27T15:16:45.392Z,11.40
2022-12-27T15:19:40.418Z,11.20
2022-12-27T15:22:32.456Z,11.20
2022-12-27T15:25:21.250Z,11.10
2022-12-27T15:28:13.531Z,10.80
2022-12-27T15:31:03.415Z,10.70
2022-12-27T15:33:52.258Z,10.80
2022-12-27T15:36:40.102Z,10.50
2022-12-27T15:39:44.306Z,10.20
2022-12-27T15:42:39.617Z,10.30
2022-12-27T15:45:37.565Z,10.30
2022-12-27T15:48:42.132Z,10.30
2022-12-27T15:51:32.154Z,10.10
2022-12-27T15:54:23.005Z,10.20
2022-12-27T15:57:28.147Z,10.40
2022-12-27T16:00:15.150Z,10.60
2022-12-27T16:03:03.188Z,10.30
2022-12-27T16:05:51.973Z,10.50
2022-12-27T16:08:41.672Z,10.40
2022-12-27T16:11:55.867Z,10.40
2022-12-27T16:14:43.717Z,10.30
2022-12-27T16:17:33.941Z,10.40
2022-12-27T16:20:21.921Z,10.30
2022-12-27T16:23:10.737Z,10.20
2022-12-27T16:26:00.628Z,10.20
2022-12-27T16:28:52.162Z,10.20
2022-12-27T16:31:45.163Z,10.30
2022-12-27T16:34:31.596Z,10.40
2022-12-27T16:37:24.240Z,10.30
2022-12-27T16:40:28.827Z,10.40
2022-12-27T16:46:15.818Z,10.40
2022-12-27T16:49:32.289Z,10.30
2022-12-27T16:52:23.550Z,10.30
2022-12-27T16:55:22.776Z,10.40
2022-12-27T16:58:25.038Z,10.70
2022-12-27T17:01:30.464Z,10.70
2022-12-27T17:04:48.873Z,10.60
2022-12-27T17:07:51.159Z,10.70
2022-12-27T17:10:53.995Z,11.00
2022-12-27T17:13:47.876Z,10.80
2022-12-27T17:16:42.654Z,10.60
2022-12-27T17:19:33.201Z,10.30
2022-12-27T17:22:19.803Z,10.50
2022-12-27T17:25:15.574Z,10.70
2022-12-27T17:28:05.543Z,10.90
2022-12-27T17:30:54.865Z,10.40
2022-12-27T17:36:21.516Z,10.40
2022-12-27T17:39:13.382Z,10.10
2022-12-27T17:42:25.437Z,10.00
2022-12-27T17:45:21.876Z,10.50
2022-12-27T17:48:12.756Z,10.50
2022-12-27T17:51:01.093Z,10.20
2022-12-27T17:54:07.621Z,10.00
2022-12-27T17:57:15.374Z,10.20
2022-12-27T18:00:01.201Z,10.00
2022-12-27T18:02:46.645Z,9.90
2022-12-27T18:05:33.603Z,10.10
2022-12-27T18:08:22.477Z,10.20
2022-12-27T18:11:11.055Z,10.00
2022-12-27T18:13:59.130Z,9.90
2022-12-27T18:16:44.866Z,9.70
2022-12-27T18:19:32.116Z,9.60
2022-12-27T18:22:19.695Z,9.60
2022-12-27T18:25:26.202Z,9.60
2022-12-27T18:28:18.190Z,9.50
2022-12-27T18:31:08.480Z,9.60
2022-12-27T18:33:57.635Z,9.50
2022-12-27T18:36:49.957Z,9.50
2022-12-27T18:39:38.961Z,9.30
2022-12-27T18:42:30.334Z,9.50
2022-12-27T18:45:21.789Z,9.50
2022-12-27T18:48:12.142Z,9.20
2022-12-27T18:50:59.182Z,9.10
2022-12-27T18:53:45.808Z,9.40
2022-12-27T18:56:34.614Z,9.30
2022-12-27T18:59:26.097Z,9.30
2022-12-27T19:02:33.242Z,9.10
2022-12-27T19:05:28.588Z,8.90
2022-12-27T19:08:20.185Z,9.10
2022-12-27T19:11:06.994Z,9.20
2022-12-27T19:13:55.893Z,9.20
2022-12-27T19:16:50.449Z,9.10
2022-12-27T19:19:37.698Z,9.00
2022-12-27T19:22:33.680Z,8.80
2022-12-27T19:25:23.427Z,8.90
2022-12-27T19:28:25.823Z,8.80
2022-12-27T19:31:18.351Z,8.60
2022-12-27T19:34:09.089Z,8.70
2022-12-27T19:36:57.766Z,8.70
2022-12-27T19:39:46.300Z,8.50
2022-12-27T19:42:35.274Z,8.70
2022-12-27T19:45:22.159Z,8.60
2022-12-27T19:48:10.258Z,8.60
2022-12-27T19:51:01.164Z,8.70
2022-12-27T19:53:57.673Z,8.70
2022-12-27T19:56:45.087Z,8.60
2022-12-27T19:59:32.056Z,8.60
2022-12-27T20:02:18.732Z,8.70
2022-12-27T20:05:08.180Z,8.70
2022-12-27T20:07:57.302Z,8.60
2022-12-27T20:10:45.277Z,8.40
2022-12-27T20:13:31.119Z,8.30
2022-12-27T20:16:19.109Z,8.50
2022-12-27T20:19:05.388Z,8.40
2022-12-27T20:21:51.479Z,8.30
2022-12-27T20:24:38.021Z,8.30
2022-12-27T20:27:25.189Z,8.30
2022-12-27T20:30:12.288Z,8.60
2022-12-27T20:32:58.078Z,8.50
2022-12-27T20:35:43.924Z,8.50
2022-12-27T20:38:29.579Z,8.30
2022-12-27T20:41:17.647Z,8.40
2022-12-27T20:44:05.816Z,8.40
2022-12-27T20:46:51.906Z,8.30
2022-12-27T20:49:42.317Z,8.30
2022-12-27T20:52:31.226Z,8.50
2022-12-27T20:55:17.076Z,8.40
2022-12-27T20:58:02.903Z,8.20
2022-12-27T21:00:49.675Z,8.50
2022-12-27T21:03:35.487Z,8.50
2022-12-27T21:06:22.714Z,8.60
2022-12-27T21:09:08.867Z,8.60
2022-12-27T21:11:54.711Z,8.50
2022-12-27T21:14:40.288Z,8.60
2022-12-27T21:17:27.650Z,8.70
2022-12-27T21:20:13.812Z,8.60
2022-12-27T21:22:59.690Z,8.60
2022-12-27T21:25:45.617Z,8.80
2022-12-27T21:28:32.155Z,8.50
2022-12-27T21:31:18.695Z,8.60
2022-12-27T21:34:07.823Z,8.70
2022-12-27T21:36:53.896Z,8.50
2022-12-27T21:39:39.560Z,8.60
2022-12-27T21:42:25.256Z,8.60
2022-12-27T21:45:12.184Z,8.70
2022-12-27T21:47:57.896Z,8.50
2022-12-27T21:50:45.543Z,8.50
2022-12-27T21:53:31.588Z,8.50
2022-12-27T21:56:18.295Z,8.60
2022-12-27T21:59:08.766Z,8.60
2022-12-27T22:01:54.475Z,8.80
2022-12-27T22:04:40.292Z,9.00
2022-12-27T22:07:27.602Z,8.90
2022-12-27T22:10:12.962Z,8.90
2022-12-27T22:12:58.465Z,8.80
2022-12-27T22:15:53.468Z,8.70
2022-12-27T22:18:43.024Z,8.60
2022-12-27T22:21:30.474Z,8.60
2022-12-27T22:24:19.575Z,8.70
2022-12-27T22:27:05.862Z,8.40
2022-12-27T22:29:51.603Z,8.80
2022-12-27T22:32:37.644Z,8.70
2022-12-27T22:35:23.556Z,8.90
2022-12-27T22:38:09.391Z,9.00
2022-12-27T22:41:03.851Z,9.10
2022-12-27T22:43:51.558Z,9.00
2022-12-27T22:49:43.379Z,8.90
2022-12-27T22:52:28.940Z,8.80
2022-12-27T22:55:15.128Z,8.80
2022-12-27T22:58:02.133Z,8.80
2022-12-27T23:00:47.654Z,8.90
2022-12-27T23:03:33.091Z,8.90
2022-12-27T23:06:19.961Z,8.60
2022-12-27T23:09:06.228Z,8.70
2022-12-27T23:11:52.090Z,8.90
2022-12-27T23:14:39.117Z,8.70
2022-12-27T23:17:24.810Z,8.60
2022-12-27T23:20:11.795Z,8.70
2022-12-27T23:22:57.473Z,8.80
2022-12-27T23:25:42.898Z,8.60
2022-12-27T23:28:28.204Z,8.70
2022-12-27T23:31:15.750Z,8.40
2022-12-27T23:34:01.498Z,8.00
2022-12-27T23:36:47.385Z,8.40
2022-12-27T23:39:33.375Z,8.40
2022-12-27T23:42:19.078Z,8.30
2022-12-27T23:45:05.360Z,8.20
2022-12-27T23:47:52.588Z,8.30
2022-12-27T23:50:38.426Z,8.10
2022-12-27T23:53:24.216Z,8.40
2022-12-27T23:56:14.635Z,8.50
2022-12-27T23:59:01.983Z,8.30
